sensor_id;sensor_type;location;lat;lon;timestamp;P1;durP1;ratioP1;P2;durP2;ratioP2
65871;SDS011;52653;50.080;21.992;2022-10-16T00:02:18;17.90;;;12.80;;
65871;SDS011;52653;50.080;21.992;2022-10-16T00:04:50;20.40;;;14.10;;
65871;SDS011;52653;50.080;21.992;2022-10-16T00:07:23;19.20;;;12.80;;
65871;SDS011;52653;50.080;21.992;2022-10-16T00:09:55;17.60;;;12.10;;
65871;SDS011;52653;50.080;21.992;2022-10-16T00:12:27;19.30;;;12.90;;
65871;SDS011;52653;50.080;21.992;2022-10-16T00:14:59;15.80;;;12.30;;
65871;SDS011;52653;50.080;21.992;2022-10-16T00:17:31;14.70;;;11.90;;
65871;SDS011;52653;50.080;21.992;2022-10-16T00:20:03;16.70;;;11.80;;
65871;SDS011;52653;50.080;21.992;2022-10-16T00:22:36;16.80;;;11.70;;
65871;SDS011;52653;50.080;21.992;2022-10-16T00:25:08;16.40;;;11.80;;
65871;SDS011;52653;50.080;21.992;2022-10-16T00:27:40;18.30;;;11.70;;
65871;SDS011;52653;50.080;21.992;2022-10-16T00:30:12;18.00;;;12.60;;
65871;SDS011;52653;50.080;21.992;2022-10-16T00:32:44;17.60;;;13.10;;
65871;SDS011;52653;50.080;21.992;2022-10-16T00:35:16;16.20;;;11.80;;
65871;SDS011;52653;50.080;21.992;2022-10-16T00:37:48;17.50;;;12.50;;
65871;SDS011;52653;50.080;21.992;2022-10-16T00:40:19;16.70;;;12.50;;
65871;SDS011;52653;50.080;21.992;2022-10-16T00:42:51;17.80;;;12.80;;
65871;SDS011;52653;50.080;21.992;2022-10-16T00:45:23;16.60;;;12.10;;
65871;SDS011;52653;50.080;21.992;2022-10-16T00:47:55;19.30;;;12.70;;
65871;SDS011;52653;50.080;21.992;2022-10-16T00:50:28;16.60;;;12.70;;
65871;SDS011;52653;50.080;21.992;2022-10-16T00:53:03;19.70;;;12.10;;
65871;SDS011;52653;50.080;21.992;2022-10-16T00:55:35;16.10;;;11.20;;
65871;SDS011;52653;50.080;21.992;2022-10-16T00:58:10;16.80;;;11.20;;
65871;SDS011;52653;50.080;21.992;2022-10-16T01:00:42;17.90;;;12.30;;
65871;SDS011;52653;50.080;21.992;2022-10-16T01:03:24;19.70;;;12.90;;
65871;SDS011;52653;50.080;21.992;2022-10-16T01:06:02;19.00;;;12.80;;
65871;SDS011;52653;50.080;21.992;2022-10-16T01:08:47;18.80;;;12.30;;
65871;SDS011;52653;50.080;21.992;2022-10-16T01:11:38;18.30;;;13.30;;
65871;SDS011;52653;50.080;21.992;2022-10-16T01:14:21;20.10;;;12.50;;
65871;SDS011;52653;50.080;21.992;2022-10-16T01:16:57;17.10;;;12.00;;
65871;SDS011;52653;50.080;21.992;2022-10-16T01:19:36;15.80;;;11.50;;
65871;SDS011;52653;50.080;21.992;2022-10-16T01:22:20;17.50;;;12.30;;
65871;SDS011;52653;50.080;21.992;2022-10-16T01:25:01;17.80;;;12.20;;
65871;SDS011;52653;50.080;21.992;2022-10-16T01:27:41;16.50;;;11.80;;
65871;SDS011;52653;50.080;21.992;2022-10-16T01:30:16;17.50;;;11.30;;
65871;SDS011;52653;50.080;21.992;2022-10-16T01:32:54;15.70;;;11.80;;
65871;SDS011;52653;50.080;21.992;2022-10-16T01:35:32;15.30;;;11.50;;
65871;SDS011;52653;50.080;21.992;2022-10-16T01:38:06;16.90;;;12.20;;
65871;SDS011;52653;50.080;21.992;2022-10-16T01:40:42;19.60;;;12.00;;
65871;SDS011;52653;50.080;21.992;2022-10-16T01:43:18;18.00;;;12.80;;
65871;SDS011;52653;50.080;21.992;2022-10-16T01:45:55;17.60;;;12.40;;
65871;SDS011;52653;50.080;21.992;2022-10-16T01:48:27;15.40;;;11.80;;
65871;SDS011;52653;50.080;21.992;2022-10-16T01:51:03;18.30;;;11.90;;
65871;SDS011;52653;50.080;21.992;2022-10-16T01:53:39;14.90;;;11.70;;
65871;SDS011;52653;50.080;21.992;2022-10-16T01:56:13;16.40;;;11.60;;
65871;SDS011;52653;50.080;21.992;2022-10-16T01:58:49;15.00;;;10.70;;
65871;SDS011;52653;50.080;21.992;2022-10-16T02:01:24;15.30;;;10.70;;
65871;SDS011;52653;50.080;21.992;2022-10-16T02:04:01;15.60;;;10.50;;
65871;SDS011;52653;50.080;21.992;2022-10-16T02:06:39;14.90;;;10.50;;
65871;SDS011;52653;50.080;21.992;2022-10-16T02:09:11;15.90;;;10.60;;
65871;SDS011;52653;50.080;21.992;2022-10-16T02:11:45;16.00;;;11.20;;
65871;SDS011;52653;50.080;21.992;2022-10-16T02:14:18;17.80;;;10.80;;
65871;SDS011;52653;50.080;21.992;2022-10-16T02:16:53;16.70;;;11.40;;
65871;SDS011;52653;50.080;21.992;2022-10-16T02:19:25;18.10;;;12.00;;
65871;SDS011;52653;50.080;21.992;2022-10-16T02:21:58;15.40;;;10.90;;
65871;SDS011;52653;50.080;21.992;2022-10-16T02:24:35;15.10;;;9.80;;
65871;SDS011;52653;50.080;21.992;2022-10-16T02:27:14;15.80;;;10.50;;
65871;SDS011;52653;50.080;21.992;2022-10-16T02:29:52;15.70;;;9.90;;
65871;SDS011;52653;50.080;21.992;2022-10-16T02:32:28;14.60;;;10.90;;
65871;SDS011;52653;50.080;21.992;2022-10-16T02:35:02;13.70;;;9.90;;
65871;SDS011;52653;50.080;21.992;2022-10-16T02:37:36;14.60;;;10.20;;
65871;SDS011;52653;50.080;21.992;2022-10-16T02:40:11;15.00;;;10.30;;
65871;SDS011;52653;50.080;21.992;2022-10-16T02:42:49;17.00;;;11.20;;
65871;SDS011;52653;50.080;21.992;2022-10-16T02:45:22;16.40;;;11.10;;
65871;SDS011;52653;50.080;21.992;2022-10-16T02:47:54;15.90;;;11.50;;
65871;SDS011;52653;50.080;21.992;2022-10-16T02:50:26;16.60;;;11.30;;
65871;SDS011;52653;50.080;21.992;2022-10-16T02:52:58;16.30;;;10.50;;
65871;SDS011;52653;50.080;21.992;2022-10-16T02:55:30;14.40;;;9.90;;
65871;SDS011;52653;50.080;21.992;2022-10-16T02:58:02;15.80;;;10.20;;
65871;SDS011;52653;50.080;21.992;2022-10-16T03:00:34;15.00;;;9.50;;
65871;SDS011;52653;50.080;21.992;2022-10-16T03:03:05;12.60;;;9.80;;
65871;SDS011;52653;50.080;21.992;2022-10-16T03:05:37;14.10;;;9.50;;
65871;SDS011;52653;50.080;21.992;2022-10-16T03:08:09;15.40;;;10.00;;
65871;SDS011;52653;50.080;21.992;2022-10-16T03:10:41;13.70;;;10.00;;
65871;SDS011;52653;50.080;21.992;2022-10-16T03:13:13;13.40;;;9.80;;
65871;SDS011;52653;50.080;21.992;2022-10-16T03:15:44;14.80;;;10.60;;
65871;SDS011;52653;50.080;21.992;2022-10-16T03:18:16;16.50;;;11.20;;
65871;SDS011;52653;50.080;21.992;2022-10-16T03:20:48;15.30;;;11.10;;
65871;SDS011;52653;50.080;21.992;2022-10-16T03:23:20;16.00;;;10.60;;
65871;SDS011;52653;50.080;21.992;2022-10-16T03:25:52;16.10;;;10.30;;
65871;SDS011;52653;50.080;21.992;2022-10-16T03:28:24;14.20;;;9.70;;
65871;SDS011;52653;50.080;21.992;2022-10-16T03:30:56;13.20;;;9.50;;
65871;SDS011;52653;50.080;21.992;2022-10-16T03:33:28;15.40;;;9.70;;
65871;SDS011;52653;50.080;21.992;2022-10-16T03:36:00;15.50;;;10.20;;
65871;SDS011;52653;50.080;21.992;2022-10-16T03:38:32;14.20;;;10.20;;
65871;SDS011;52653;50.080;21.992;2022-10-16T03:41:03;14.60;;;10.80;;
65871;SDS011;52653;50.080;21.992;2022-10-16T03:43:36;15.00;;;11.00;;
65871;SDS011;52653;50.080;21.992;2022-10-16T03:46:08;16.90;;;11.90;;
65871;SDS011;52653;50.080;21.992;2022-10-16T03:48:39;17.30;;;12.10;;
65871;SDS011;52653;50.080;21.992;2022-10-16T03:51:11;15.20;;;10.80;;
65871;SDS011;52653;50.080;21.992;2022-10-16T03:53:43;15.60;;;10.20;;
65871;SDS011;52653;50.080;21.992;2022-10-16T03:56:15;15.20;;;10.90;;
65871;SDS011;52653;50.080;21.992;2022-10-16T03:58:46;14.20;;;9.90;;
65871;SDS011;52653;50.080;21.992;2022-10-16T04:01:18;12.90;;;9.70;;
65871;SDS011;52653;50.080;21.992;2022-10-16T04:03:50;13.60;;;9.30;;
65871;SDS011;52653;50.080;21.992;2022-10-16T04:06:22;13.00;;;10.10;;
65871;SDS011;52653;50.080;21.992;2022-10-16T04:08:53;14.30;;;10.20;;
65871;SDS011;52653;50.080;21.992;2022-10-16T04:11:25;17.30;;;10.70;;
65871;SDS011;52653;50.080;21.992;2022-10-16T04:13:57;16.20;;;10.40;;
65871;SDS011;52653;50.080;21.992;2022-10-16T04:16:29;16.20;;;11.10;;
65871;SDS011;52653;50.080;21.992;2022-10-16T04:19:01;14.70;;;10.50;;
65871;SDS011;52653;50.080;21.992;2022-10-16T04:21:33;12.90;;;9.90;;
65871;SDS011;52653;50.080;21.992;2022-10-16T04:24:04;13.80;;;9.50;;
65871;SDS011;52653;50.080;21.992;2022-10-16T04:26:36;14.40;;;10.20;;
65871;SDS011;52653;50.080;21.992;2022-10-16T04:29:08;13.40;;;10.10;;
65871;SDS011;52653;50.080;21.992;2022-10-16T04:31:40;18.80;;;10.90;;
65871;SDS011;52653;50.080;21.992;2022-10-16T04:34:12;16.70;;;10.30;;
65871;SDS011;52653;50.080;21.992;2022-10-16T04:36:43;16.20;;;10.60;;
65871;SDS011;52653;50.080;21.992;2022-10-16T04:39:16;14.40;;;11.30;;
65871;SDS011;52653;50.080;21.992;2022-10-16T04:41:48;18.20;;;12.30;;
65871;SDS011;52653;50.080;21.992;2022-10-16T04:44:20;15.60;;;10.90;;
65871;SDS011;52653;50.080;21.992;2022-10-16T04:46:52;17.90;;;10.90;;
65871;SDS011;52653;50.080;21.992;2022-10-16T04:49:23;15.50;;;10.50;;
65871;SDS011;52653;50.080;21.992;2022-10-16T04:51:55;13.80;;;9.20;;
65871;SDS011;52653;50.080;21.992;2022-10-16T04:54:27;13.80;;;9.90;;
65871;SDS011;52653;50.080;21.992;2022-10-16T04:56:58;16.10;;;10.80;;
65871;SDS011;52653;50.080;21.992;2022-10-16T04:59:30;14.90;;;10.40;;
65871;SDS011;52653;50.080;21.992;2022-10-16T05:02:02;16.50;;;11.10;;
65871;SDS011;52653;50.080;21.992;2022-10-16T05:04:34;15.00;;;10.60;;
65871;SDS011;52653;50.080;21.992;2022-10-16T05:07:06;14.50;;;10.60;;
65871;SDS011;52653;50.080;21.992;2022-10-16T05:09:38;15.80;;;11.40;;
65871;SDS011;52653;50.080;21.992;2022-10-16T05:12:09;16.30;;;10.40;;
65871;SDS011;52653;50.080;21.992;2022-10-16T05:14:41;13.20;;;9.90;;
65871;SDS011;52653;50.080;21.992;2022-10-16T05:17:13;15.50;;;9.60;;
65871;SDS011;52653;50.080;21.992;2022-10-16T05:19:44;12.30;;;8.60;;
65871;SDS011;52653;50.080;21.992;2022-10-16T05:22:16;13.20;;;9.70;;
65871;SDS011;52653;50.080;21.992;2022-10-16T05:24:48;14.80;;;9.80;;
65871;SDS011;52653;50.080;21.992;2022-10-16T05:27:20;14.20;;;9.90;;
65871;SDS011;52653;50.080;21.992;2022-10-16T05:29:52;15.20;;;10.20;;
65871;SDS011;52653;50.080;21.992;2022-10-16T05:32:24;14.50;;;11.00;;
65871;SDS011;52653;50.080;21.992;2022-10-16T05:34:56;16.20;;;10.00;;
65871;SDS011;52653;50.080;21.992;2022-10-16T05:37:29;13.90;;;9.60;;
65871;SDS011;52653;50.080;21.992;2022-10-16T05:40:01;13.20;;;9.30;;
65871;SDS011;52653;50.080;21.992;2022-10-16T05:42:33;11.10;;;8.70;;
65871;SDS011;52653;50.080;21.992;2022-10-16T05:45:07;14.90;;;9.30;;
65871;SDS011;52653;50.080;21.992;2022-10-16T05:47:40;13.80;;;9.40;;
65871;SDS011;52653;50.080;21.992;2022-10-16T05:50:12;17.40;;;10.00;;
65871;SDS011;52653;50.080;21.992;2022-10-16T05:52:44;12.30;;;9.60;;
65871;SDS011;52653;50.080;21.992;2022-10-16T05:55:16;15.80;;;10.30;;
65871;SDS011;52653;50.080;21.992;2022-10-16T05:57:47;13.50;;;9.70;;
65871;SDS011;52653;50.080;21.992;2022-10-16T06:00:19;14.10;;;9.80;;
65871;SDS011;52653;50.080;21.992;2022-10-16T06:02:51;14.30;;;10.00;;
65871;SDS011;52653;50.080;21.992;2022-10-16T06:05:24;13.70;;;10.60;;
65871;SDS011;52653;50.080;21.992;2022-10-16T06:07:57;12.90;;;9.20;;
65871;SDS011;52653;50.080;21.992;2022-10-16T06:10:29;12.70;;;9.60;;
65871;SDS011;52653;50.080;21.992;2022-10-16T06:13:01;11.30;;;8.30;;
65871;SDS011;52653;50.080;21.992;2022-10-16T06:15:33;12.20;;;8.90;;
65871;SDS011;52653;50.080;21.992;2022-10-16T06:18:05;12.70;;;8.70;;
65871;SDS011;52653;50.080;21.992;2022-10-16T06:20:38;11.40;;;9.10;;
65871;SDS011;52653;50.080;21.992;2022-10-16T06:23:10;11.90;;;9.90;;
65871;SDS011;52653;50.080;21.992;2022-10-16T06:25:42;13.50;;;9.40;;
65871;SDS011;52653;50.080;21.992;2022-10-16T06:28:14;13.90;;;9.80;;
65871;SDS011;52653;50.080;21.992;2022-10-16T06:30:47;13.90;;;9.40;;
65871;SDS011;52653;50.080;21.992;2022-10-16T06:33:19;13.60;;;9.90;;
65871;SDS011;52653;50.080;21.992;2022-10-16T06:35:51;14.00;;;9.70;;
65871;SDS011;52653;50.080;21.992;2022-10-16T06:38:22;11.40;;;9.20;;
65871;SDS011;52653;50.080;21.992;2022-10-16T06:40:55;11.80;;;9.30;;
65871;SDS011;52653;50.080;21.992;2022-10-16T06:43:27;11.80;;;8.60;;
65871;SDS011;52653;50.080;21.992;2022-10-16T06:46:02;13.30;;;9.00;;
65871;SDS011;52653;50.080;21.992;2022-10-16T06:48:35;11.40;;;8.00;;
65871;SDS011;52653;50.080;21.992;2022-10-16T06:51:08;10.90;;;7.50;;
65871;SDS011;52653;50.080;21.992;2022-10-16T06:53:42;11.70;;;8.50;;
65871;SDS011;52653;50.080;21.992;2022-10-16T06:56:31;12.80;;;8.80;;
65871;SDS011;52653;50.080;21.992;2022-10-16T06:59:03;13.90;;;9.10;;
65871;SDS011;52653;50.080;21.992;2022-10-16T07:01:35;14.30;;;9.10;;
65871;SDS011;52653;50.080;21.992;2022-10-16T07:04:07;13.80;;;9.40;;
65871;SDS011;52653;50.080;21.992;2022-10-16T07:06:40;12.00;;;9.10;;
65871;SDS011;52653;50.080;21.992;2022-10-16T07:09:13;12.30;;;8.90;;
65871;SDS011;52653;50.080;21.992;2022-10-16T07:11:45;13.00;;;9.00;;
65871;SDS011;52653;50.080;21.992;2022-10-16T07:14:17;12.20;;;8.60;;
65871;SDS011;52653;50.080;21.992;2022-10-16T07:16:51;13.00;;;8.20;;
65871;SDS011;52653;50.080;21.992;2022-10-16T07:19:23;13.00;;;8.30;;
65871;SDS011;52653;50.080;21.992;2022-10-16T07:24:34;11.60;;;8.60;;
65871;SDS011;52653;50.080;21.992;2022-10-16T07:27:06;15.30;;;8.90;;
65871;SDS011;52653;50.080;21.992;2022-10-16T07:29:38;13.30;;;8.90;;
65871;SDS011;52653;50.080;21.992;2022-10-16T07:32:10;11.90;;;8.20;;
65871;SDS011;52653;50.080;21.992;2022-10-16T07:34:42;12.40;;;8.60;;
65871;SDS011;52653;50.080;21.992;2022-10-16T07:37:17;11.60;;;8.30;;
65871;SDS011;52653;50.080;21.992;2022-10-16T07:39:49;14.00;;;9.10;;
65871;SDS011;52653;50.080;21.992;2022-10-16T07:42:21;12.40;;;9.10;;
65871;SDS011;52653;50.080;21.992;2022-10-16T07:44:53;13.80;;;9.50;;
65871;SDS011;52653;50.080;21.992;2022-10-16T07:47:25;12.00;;;8.10;;
65871;SDS011;52653;50.080;21.992;2022-10-16T07:49:58;11.40;;;8.90;;
65871;SDS011;52653;50.080;21.992;2022-10-16T07:52:30;11.40;;;8.10;;
65871;SDS011;52653;50.080;21.992;2022-10-16T07:55:01;12.50;;;8.00;;
65871;SDS011;52653;50.080;21.992;2022-10-16T07:57:34;13.10;;;9.20;;
65871;SDS011;52653;50.080;21.992;2022-10-16T08:00:07;10.70;;;8.30;;
65871;SDS011;52653;50.080;21.992;2022-10-16T08:02:42;10.50;;;7.90;;
65871;SDS011;52653;50.080;21.992;2022-10-16T08:05:14;11.80;;;8.80;;
65871;SDS011;52653;50.080;21.992;2022-10-16T08:07:49;11.90;;;7.90;;
65871;SDS011;52653;50.080;21.992;2022-10-16T08:10:23;11.60;;;8.30;;
65871;SDS011;52653;50.080;21.992;2022-10-16T08:12:56;10.20;;;8.00;;
65871;SDS011;52653;50.080;21.992;2022-10-16T08:15:28;10.90;;;7.70;;
65871;SDS011;52653;50.080;21.992;2022-10-16T08:18:01;15.80;;;8.00;;
65871;SDS011;52653;50.080;21.992;2022-10-16T08:20:34;14.20;;;8.40;;
65871;SDS011;52653;50.080;21.992;2022-10-16T08:23:06;12.70;;;8.10;;
65871;SDS011;52653;50.080;21.992;2022-10-16T08:25:40;10.10;;;7.90;;
65871;SDS011;52653;50.080;21.992;2022-10-16T08:28:12;10.40;;;7.80;;
65871;SDS011;52653;50.080;21.992;2022-10-16T08:30:44;12.70;;;8.20;;
65871;SDS011;52653;50.080;21.992;2022-10-16T08:33:16;11.30;;;7.70;;
65871;SDS011;52653;50.080;21.992;2022-10-16T08:35:52;12.80;;;8.00;;
65871;SDS011;52653;50.080;21.992;2022-10-16T08:38:24;11.10;;;7.90;;
65871;SDS011;52653;50.080;21.992;2022-10-16T08:40:57;11.00;;;8.00;;
65871;SDS011;52653;50.080;21.992;2022-10-16T08:43:59;13.20;;;7.40;;
65871;SDS011;52653;50.080;21.992;2022-10-16T08:46:47;12.50;;;7.90;;
65871;SDS011;52653;50.080;21.992;2022-10-16T08:49:29;10.70;;;7.70;;
65871;SDS011;52653;50.080;21.992;2022-10-16T08:52:02;11.20;;;7.50;;
65871;SDS011;52653;50.080;21.992;2022-10-16T08:54:34;10.20;;;7.10;;
65871;SDS011;52653;50.080;21.992;2022-10-16T08:57:12;13.10;;;8.00;;
65871;SDS011;52653;50.080;21.992;2022-10-16T08:59:52;10.20;;;7.40;;
65871;SDS011;52653;50.080;21.992;2022-10-16T09:02:31;12.40;;;8.10;;
65871;SDS011;52653;50.080;21.992;2022-10-16T09:08:03;11.40;;;7.80;;
65871;SDS011;52653;50.080;21.992;2022-10-16T09:10:46;13.00;;;7.70;;
65871;SDS011;52653;50.080;21.992;2022-10-16T09:13:28;11.20;;;7.10;;
65871;SDS011;52653;50.080;21.992;2022-10-16T09:16:10;9.20;;;6.80;;
65871;SDS011;52653;50.080;21.992;2022-10-16T09:18:51;11.10;;;8.30;;
65871;SDS011;52653;50.080;21.992;2022-10-16T09:21:28;11.60;;;6.80;;
65871;SDS011;52653;50.080;21.992;2022-10-16T09:24:08;10.00;;;6.90;;
65871;SDS011;52653;50.080;21.992;2022-10-16T09:26:43;9.60;;;7.10;;
65871;SDS011;52653;50.080;21.992;2022-10-16T09:29:16;11.30;;;7.20;;
65871;SDS011;52653;50.080;21.992;2022-10-16T09:31:50;10.80;;;7.40;;
65871;SDS011;52653;50.080;21.992;2022-10-16T09:34:27;10.60;;;7.40;;
65871;SDS011;52653;50.080;21.992;2022-10-16T09:37:03;8.50;;;7.10;;
65871;SDS011;52653;50.080;21.992;2022-10-16T09:39:48;10.00;;;7.10;;
65871;SDS011;52653;50.080;21.992;2022-10-16T09:42:21;10.50;;;8.20;;
65871;SDS011;52653;50.080;21.992;2022-10-16T09:44:57;10.40;;;7.90;;
65871;SDS011;52653;50.080;21.992;2022-10-16T09:47:30;11.70;;;7.60;;
65871;SDS011;52653;50.080;21.992;2022-10-16T09:50:20;10.00;;;8.20;;
65871;SDS011;52653;50.080;21.992;2022-10-16T09:53:08;11.30;;;8.20;;
65871;SDS011;52653;50.080;21.992;2022-10-16T09:55:50;11.50;;;8.20;;
65871;SDS011;52653;50.080;21.992;2022-10-16T09:58:23;10.70;;;7.20;;
65871;SDS011;52653;50.080;21.992;2022-10-16T10:00:55;11.10;;;7.50;;
65871;SDS011;52653;50.080;21.992;2022-10-16T10:03:37;10.90;;;7.80;;
65871;SDS011;52653;50.080;21.992;2022-10-16T10:06:19;8.50;;;7.00;;
65871;SDS011;52653;50.080;21.992;2022-10-16T10:08:55;13.40;;;7.80;;
65871;SDS011;52653;50.080;21.992;2022-10-16T10:11:39;12.10;;;7.10;;
65871;SDS011;52653;50.080;21.992;2022-10-16T10:14:21;9.80;;;7.10;;
65871;SDS011;52653;50.080;21.992;2022-10-16T10:17:10;10.10;;;7.40;;
65871;SDS011;52653;50.080;21.992;2022-10-16T10:19:46;11.10;;;7.50;;
65871;SDS011;52653;50.080;21.992;2022-10-16T10:22:22;13.30;;;8.10;;
65871;SDS011;52653;50.080;21.992;2022-10-16T10:28:06;10.90;;;7.50;;
65871;SDS011;52653;50.080;21.992;2022-10-16T10:30:49;10.50;;;8.30;;
65871;SDS011;52653;50.080;21.992;2022-10-16T10:33:34;10.60;;;7.70;;
65871;SDS011;52653;50.080;21.992;2022-10-16T10:36:25;12.50;;;7.60;;
65871;SDS011;52653;50.080;21.992;2022-10-16T10:39:02;9.60;;;7.70;;
65871;SDS011;52653;50.080;21.992;2022-10-16T10:44:40;12.30;;;8.30;;
65871;SDS011;52653;50.080;21.992;2022-10-16T10:47:29;10.30;;;7.90;;
65871;SDS011;52653;50.080;21.992;2022-10-16T10:50:14;12.30;;;7.80;;
65871;SDS011;52653;50.080;21.992;2022-10-16T10:52:56;8.80;;;7.10;;
65871;SDS011;52653;50.080;21.992;2022-10-16T10:55:39;9.20;;;7.00;;
65871;SDS011;52653;50.080;21.992;2022-10-16T10:58:33;10.30;;;7.00;;
65871;SDS011;52653;50.080;21.992;2022-10-16T11:01:15;8.60;;;7.10;;
65871;SDS011;52653;50.080;21.992;2022-10-16T11:06:39;11.10;;;7.00;;
65871;SDS011;52653;50.080;21.992;2022-10-16T11:09:15;11.30;;;7.40;;
65871;SDS011;52653;50.080;21.992;2022-10-16T11:11:51;10.00;;;6.90;;
65871;SDS011;52653;50.080;21.992;2022-10-16T11:14:28;9.20;;;6.80;;
65871;SDS011;52653;50.080;21.992;2022-10-16T11:17:05;9.60;;;7.60;;
65871;SDS011;52653;50.080;21.992;2022-10-16T11:22:19;8.80;;;6.80;;
65871;SDS011;52653;50.080;21.992;2022-10-16T11:24:58;11.80;;;7.70;;
65871;SDS011;52653;50.080;21.992;2022-10-16T11:27:35;10.70;;;7.40;;
65871;SDS011;52653;50.080;21.992;2022-10-16T11:30:14;10.20;;;7.00;;
65871;SDS011;52653;50.080;21.992;2022-10-16T11:32:54;9.20;;;7.30;;
65871;SDS011;52653;50.080;21.992;2022-10-16T11:35:37;8.50;;;6.80;;
65871;SDS011;52653;50.080;21.992;2022-10-16T11:38:15;10.70;;;6.40;;
65871;SDS011;52653;50.080;21.992;2022-10-16T11:40:53;10.80;;;7.40;;
65871;SDS011;52653;50.080;21.992;2022-10-16T11:43:30;9.00;;;7.10;;
65871;SDS011;52653;50.080;21.992;2022-10-16T11:46:10;12.60;;;7.40;;
65871;SDS011;52653;50.080;21.992;2022-10-16T11:48:48;10.10;;;7.10;;
65871;SDS011;52653;50.080;21.992;2022-10-16T11:51:25;11.00;;;7.10;;
65871;SDS011;52653;50.080;21.992;2022-10-16T11:54:04;9.10;;;6.90;;
65871;SDS011;52653;50.080;21.992;2022-10-16T11:56:45;10.70;;;7.20;;
65871;SDS011;52653;50.080;21.992;2022-10-16T11:59:23;11.50;;;7.10;;
65871;SDS011;52653;50.080;21.992;2022-10-16T12:02:04;9.10;;;6.60;;
65871;SDS011;52653;50.080;21.992;2022-10-16T12:04:59;10.10;;;6.90;;
65871;SDS011;52653;50.080;21.992;2022-10-16T12:07:44;10.90;;;7.20;;
65871;SDS011;52653;50.080;21.992;2022-10-16T12:10:23;9.40;;;6.40;;
65871;SDS011;52653;50.080;21.992;2022-10-16T12:12:57;11.00;;;7.00;;
65871;SDS011;52653;50.080;21.992;2022-10-16T12:15:29;10.20;;;6.70;;
65871;SDS011;52653;50.080;21.992;2022-10-16T12:18:24;9.60;;;6.60;;
65871;SDS011;52653;50.080;21.992;2022-10-16T12:20:56;9.40;;;6.80;;
65871;SDS011;52653;50.080;21.992;2022-10-16T12:26:07;8.50;;;6.70;;
65871;SDS011;52653;50.080;21.992;2022-10-16T12:28:40;8.70;;;6.30;;
65871;SDS011;52653;50.080;21.992;2022-10-16T12:31:15;13.70;;;9.70;;
65871;SDS011;52653;50.080;21.992;2022-10-16T12:33:55;13.80;;;8.90;;
65871;SDS011;52653;50.080;21.992;2022-10-16T12:36:31;9.80;;;7.10;;
65871;SDS011;52653;50.080;21.992;2022-10-16T12:39:04;10.00;;;6.90;;
65871;SDS011;52653;50.080;21.992;2022-10-16T12:41:53;10.80;;;7.10;;
65871;SDS011;52653;50.080;21.992;2022-10-16T12:44:35;12.00;;;7.80;;
65871;SDS011;52653;50.080;21.992;2022-10-16T12:47:18;9.70;;;6.90;;
65871;SDS011;52653;50.080;21.992;2022-10-16T12:49:53;9.30;;;6.70;;
65871;SDS011;52653;50.080;21.992;2022-10-16T12:52:29;10.60;;;7.00;;
65871;SDS011;52653;50.080;21.992;2022-10-16T12:55:13;11.30;;;7.20;;
65871;SDS011;52653;50.080;21.992;2022-10-16T12:57:52;9.30;;;6.40;;
65871;SDS011;52653;50.080;21.992;2022-10-16T13:00:41;9.10;;;6.60;;
65871;SDS011;52653;50.080;21.992;2022-10-16T13:03:27;8.40;;;6.30;;
65871;SDS011;52653;50.080;21.992;2022-10-16T13:06:17;10.70;;;7.00;;
65871;SDS011;52653;50.080;21.992;2022-10-16T13:09:00;10.40;;;6.50;;
65871;SDS011;52653;50.080;21.992;2022-10-16T13:11:52;8.80;;;6.60;;
65871;SDS011;52653;50.080;21.992;2022-10-16T13:14:46;10.30;;;7.00;;
65871;SDS011;52653;50.080;21.992;2022-10-16T13:17:32;10.10;;;6.30;;
65871;SDS011;52653;50.080;21.992;2022-10-16T13:20:16;9.20;;;6.20;;
65871;SDS011;52653;50.080;21.992;2022-10-16T13:22:54;10.00;;;6.40;;
65871;SDS011;52653;50.080;21.992;2022-10-16T13:25:38;10.00;;;6.50;;
65871;SDS011;52653;50.080;21.992;2022-10-16T13:28:19;11.60;;;6.70;;
65871;SDS011;52653;50.080;21.992;2022-10-16T13:30:57;8.60;;;6.80;;
65871;SDS011;52653;50.080;21.992;2022-10-16T13:33:34;8.40;;;6.40;;
65871;SDS011;52653;50.080;21.992;2022-10-16T13:36:18;8.90;;;6.90;;
65871;SDS011;52653;50.080;21.992;2022-10-16T13:39:00;10.00;;;6.10;;
65871;SDS011;52653;50.080;21.992;2022-10-16T13:41:40;12.20;;;7.90;;
65871;SDS011;52653;50.080;21.992;2022-10-16T13:44:14;11.00;;;7.10;;
65871;SDS011;52653;50.080;21.992;2022-10-16T13:46:59;9.00;;;6.50;;
65871;SDS011;52653;50.080;21.992;2022-10-16T13:49:31;9.40;;;6.80;;
65871;SDS011;52653;50.080;21.992;2022-10-16T13:52:03;10.50;;;6.30;;
65871;SDS011;52653;50.080;21.992;2022-10-16T13:54:35;9.40;;;6.70;;
65871;SDS011;52653;50.080;21.992;2022-10-16T13:57:07;9.50;;;7.00;;
65871;SDS011;52653;50.080;21.992;2022-10-16T13:59:55;9.30;;;6.40;;
65871;SDS011;52653;50.080;21.992;2022-10-16T14:02:27;11.90;;;6.80;;
65871;SDS011;52653;50.080;21.992;2022-10-16T14:05:04;9.30;;;6.70;;
65871;SDS011;52653;50.080;21.992;2022-10-16T14:07:42;8.50;;;6.60;;
65871;SDS011;52653;50.080;21.992;2022-10-16T14:10:22;8.40;;;6.40;;
65871;SDS011;52653;50.080;21.992;2022-10-16T14:15:28;7.90;;;6.50;;
65871;SDS011;52653;50.080;21.992;2022-10-16T14:18:01;9.30;;;6.90;;
65871;SDS011;52653;50.080;21.992;2022-10-16T14:20:34;9.60;;;7.20;;
65871;SDS011;52653;50.080;21.992;2022-10-16T14:23:18;9.60;;;6.60;;
65871;SDS011;52653;50.080;21.992;2022-10-16T14:25:55;9.40;;;6.40;;
65871;SDS011;52653;50.080;21.992;2022-10-16T14:28:42;8.80;;;6.80;;
65871;SDS011;52653;50.080;21.992;2022-10-16T14:31:25;8.30;;;6.20;;
65871;SDS011;52653;50.080;21.992;2022-10-16T14:34:00;10.20;;;6.20;;
65871;SDS011;52653;50.080;21.992;2022-10-16T14:36:31;10.40;;;6.30;;
65871;SDS011;52653;50.080;21.992;2022-10-16T14:39:05;8.90;;;6.40;;
65871;SDS011;52653;50.080;21.992;2022-10-16T14:41:48;8.80;;;6.10;;
65871;SDS011;52653;50.080;21.992;2022-10-16T14:44:21;10.90;;;6.60;;
65871;SDS011;52653;50.080;21.992;2022-10-16T14:46:57;9.10;;;6.30;;
65871;SDS011;52653;50.080;21.992;2022-10-16T14:49:36;10.90;;;6.60;;
65871;SDS011;52653;50.080;21.992;2022-10-16T14:52:11;10.90;;;8.00;;
65871;SDS011;52653;50.080;21.992;2022-10-16T14:54:46;8.90;;;6.70;;
65871;SDS011;52653;50.080;21.992;2022-10-16T14:57:20;9.60;;;6.90;;
65871;SDS011;52653;50.080;21.992;2022-10-16T14:59:54;12.10;;;7.80;;
65871;SDS011;52653;50.080;21.992;2022-10-16T15:02:27;11.30;;;7.10;;
65871;SDS011;52653;50.080;21.992;2022-10-16T15:05:07;10.90;;;7.30;;
65871;SDS011;52653;50.080;21.992;2022-10-16T15:07:44;11.80;;;7.10;;
65871;SDS011;52653;50.080;21.992;2022-10-16T15:10:17;10.80;;;6.90;;
65871;SDS011;52653;50.080;21.992;2022-10-16T15:12:49;12.90;;;7.50;;
65871;SDS011;52653;50.080;21.992;2022-10-16T15:18:12;12.90;;;7.80;;
65871;SDS011;52653;50.080;21.992;2022-10-16T15:20:49;11.80;;;7.40;;
65871;SDS011;52653;50.080;21.992;2022-10-16T15:23:21;12.60;;;7.80;;
65871;SDS011;52653;50.080;21.992;2022-10-16T15:25:55;11.10;;;7.30;;
65871;SDS011;52653;50.080;21.992;2022-10-16T15:28:28;10.10;;;6.90;;
65871;SDS011;52653;50.080;21.992;2022-10-16T15:31:00;11.60;;;8.50;;
65871;SDS011;52653;50.080;21.992;2022-10-16T15:33:34;12.80;;;8.00;;